createdAt,value
2022-09-12T00:00:11.718Z,100.00
2022-09-12T00:03:14.619Z,100.00
2022-09-12T00:06:22.961Z,100.00
2022-09-12T00:09:25.838Z,99.78
2022-09-12T00:12:29.662Z,100.00
2022-09-12T00:15:32.194Z,100.00
2022-09-12T00:18:35.432Z,100.00
2022-09-12T00:21:39.782Z,99.97
2022-09-12T00:24:42.249Z,100.00
2022-09-12T00:27:46.053Z,100.00
2022-09-12T00:30:49.801Z,100.00
2022-09-12T00:33:52.638Z,100.00
2022-09-12T00:36:55.123Z,100.00
2022-09-12T00:39:58.530Z,99.12
2022-09-12T00:43:02.381Z,99.09
2022-09-12T00:46:14.497Z,99.28
2022-09-12T00:49:21.290Z,99.10
2022-09-12T00:52:30.300Z,99.08
2022-09-12T00:55:37.466Z,99.73
2022-09-12T00:58:46.488Z,98.85
2022-09-12T01:01:51.911Z,99.67
2022-09-12T01:04:55.387Z,99.50
2022-09-12T01:07:58.414Z,98.86
2022-09-12T01:11:00.959Z,98.60
2022-09-12T01:14:04.792Z,98.39
2022-09-12T01:17:07.522Z,98.13
2022-09-12T01:20:31.593Z,98.55
2022-09-12T01:24:07.928Z,97.88
2022-09-12T01:27:34.743Z,98.02
2022-09-12T01:30:46.367Z,97.99
2022-09-12T01:33:59.694Z,98.89
2022-09-12T01:37:09.389Z,99.45
2022-09-12T01:40:22.071Z,98.61
2022-09-12T01:43:31.736Z,99.96
2022-09-12T01:46:44.212Z,98.41
2022-09-12T01:49:56.151Z,98.21
2022-09-12T01:53:03.148Z,98.77
2022-09-12T01:56:12.526Z,97.30
2022-09-12T01:59:21.258Z,98.35
2022-09-12T02:02:31.957Z,98.98
2022-09-12T02:05:37.859Z,97.90
2022-09-12T02:08:45.301Z,97.40
2022-09-12T02:11:51.241Z,98.01
2022-09-12T02:14:59.699Z,98.27
2022-09-12T02:18:06.845Z,97.88
2022-09-12T02:21:09.773Z,97.35
2022-09-12T02:24:15.746Z,97.00
2022-09-12T02:27:23.420Z,97.93
2022-09-12T02:30:26.328Z,97.95
2022-09-12T02:33:36.418Z,97.95
2022-09-12T02:36:49.845Z,97.41
2022-09-12T02:39:54.976Z,97.62
2022-09-12T02:42:58.654Z,97.04
2022-09-12T02:46:01.422Z,97.09
2022-09-12T02:49:05.731Z,97.08
2022-09-12T02:52:08.385Z,96.96
2022-09-12T02:55:12.522Z,96.82
2022-09-12T02:58:18.795Z,97.33
2022-09-12T03:01:34.774Z,98.19
2022-09-12T03:05:03.182Z,97.45
2022-09-12T03:08:45.145Z,97.56
2022-09-12T03:12:03.723Z,96.93
2022-09-12T03:15:15.646Z,97.48
2022-09-12T03:18:27.973Z,96.93
2022-09-12T03:21:38.122Z,96.86
2022-09-12T03:24:51.817Z,96.97
2022-09-12T03:27:59.014Z,97.47
2022-09-12T03:31:01.576Z,97.24
2022-09-12T03:34:04.320Z,96.55
2022-09-12T03:37:08.230Z,96.88
2022-09-12T03:40:13.288Z,97.01
2022-09-12T03:43:15.921Z,97.06
2022-09-12T03:46:18.450Z,96.83
2022-09-12T03:49:20.944Z,97.01
2022-09-12T03:52:25.212Z,97.48
2022-09-12T03:55:27.767Z,96.79
2022-09-12T03:58:32.116Z,96.96
2022-09-12T04:01:35.391Z,95.92
2022-09-12T04:04:37.884Z,96.48
2022-09-12T04:07:41.717Z,97.40
2022-09-12T04:10:44.234Z,97.12
2022-09-12T04:13:47.489Z,97.15
2022-09-12T04:16:50.354Z,96.88
2022-09-12T04:19:52.853Z,98.16
2022-09-12T04:22:56.689Z,98.06
2022-09-12T04:26:00.992Z,97.49
2022-09-12T04:29:03.516Z,96.70
2022-09-12T04:32:06.414Z,97.61
2022-09-12T04:35:11.209Z,97.42
2022-09-12T04:38:15.478Z,97.98
2022-09-12T04:41:20.107Z,97.29
2022-09-12T04:44:22.617Z,96.97
2022-09-12T04:47:25.081Z,96.07
2022-09-12T04:50:27.711Z,97.58
2022-09-12T04:53:31.600Z,96.95
2022-09-12T04:56:38.316Z,96.82
2022-09-12T04:59:41.008Z,96.77
2022-09-12T05:02:43.491Z,96.96
2022-09-12T05:05:45.962Z,96.75
2022-09-12T05:08:49.929Z,97.31
2022-09-12T05:12:07.890Z,96.50
2022-09-12T05:15:11.483Z,96.30
2022-09-12T05:18:13.965Z,96.65
2022-09-12T05:21:17.810Z,97.60
2022-09-12T05:24:21.639Z,97.23
2022-09-12T05:27:24.147Z,97.14
2022-09-12T05:30:26.651Z,97.15
2022-09-12T05:33:29.518Z,96.99
2022-09-12T05:36:32.403Z,96.65
2022-09-12T05:39:36.448Z,97.38
2022-09-12T05:42:38.928Z,96.85
2022-09-12T05:45:42.114Z,96.30
2022-09-12T05:48:46.300Z,97.39
2022-09-12T05:51:48.899Z,97.99
2022-09-12T05:54:52.718Z,97.52
2022-09-12T05:57:55.217Z,98.09
2022-09-12T06:01:02.901Z,98.03
2022-09-12T06:04:07.331Z,97.44
2022-09-12T06:07:09.997Z,98.64
2022-09-12T06:10:14.134Z,98.86
2022-09-12T06:13:16.610Z,99.24
2022-09-12T06:16:20.878Z,98.68
2022-09-12T06:19:25.009Z,98.36
2022-09-12T06:22:27.492Z,98.45
2022-09-12T06:25:31.414Z,98.42
2022-09-12T06:28:36.152Z,98.71
2022-09-12T06:31:41.326Z,99.16
2022-09-12T06:34:43.813Z,98.92
2022-09-12T06:37:46.580Z,99.25
2022-09-12T06:40:51.449Z,99.18
2022-09-12T06:43:54.728Z,99.40
2022-09-12T06:46:58.651Z,99.11
2022-09-12T06:50:01.261Z,99.40
2022-09-12T06:53:04.019Z,100.00
2022-09-12T06:56:11.065Z,100.00
2022-09-12T06:59:13.619Z,100.00
2022-09-12T07:02:16.197Z,100.00
2022-09-12T07:05:18.771Z,100.00
2022-09-12T07:08:21.275Z,100.00
2022-09-12T07:11:26.961Z,100.00
2022-09-12T07:14:29.484Z,100.00
2022-09-12T07:17:31.965Z,100.00
2022-09-12T07:20:34.607Z,100.00
2022-09-12T07:23:37.132Z,100.00
2022-09-12T07:26:42.602Z,100.00
2022-09-12T07:29:46.774Z,100.00
2022-09-12T07:32:53.290Z,100.00
2022-09-12T07:35:56.057Z,100.00
2022-09-12T07:38:59.360Z,100.00
2022-09-12T07:42:03.468Z,100.00
2022-09-12T07:45:06.478Z,100.00
2022-09-12T07:48:09.005Z,100.00
2022-09-12T07:51:12.920Z,100.00
2022-09-12T07:54:15.772Z,100.00
2022-09-12T07:57:19.616Z,100.00
2022-09-12T08:00:22.305Z,99.09
2022-09-12T08:03:24.826Z,97.95
2022-09-12T08:06:30.214Z,97.26
2022-09-12T08:09:32.817Z,96.85
2022-09-12T08:12:36.783Z,100.00
2022-09-12T08:15:39.333Z,97.34
2022-09-12T08:18:42.282Z,97.31
2022-09-12T08:21:44.755Z,92.50
2022-09-12T08:24:47.257Z,89.28
2022-09-12T08:27:51.150Z,94.50
2022-09-12T08:30:54.040Z,91.89
2022-09-12T08:33:57.657Z,88.94
2022-09-12T08:37:01.212Z,83.79
2022-09-12T08:40:06.664Z,86.84
2022-09-12T08:43:22.139Z,86.17
2022-09-12T08:46:30.032Z,83.32
2022-09-12T08:49:35.533Z,82.65
2022-09-12T08:52:44.382Z,82.91
2022-09-12T08:55:53.702Z,80.80
2022-09-12T08:58:57.566Z,79.25
2022-09-12T09:02:04.374Z,83.31
2022-09-12T09:05:20.069Z,82.88
2022-09-12T09:08:36.250Z,80.23
2022-09-12T09:11:58.647Z,78.41
2022-09-12T09:15:22.015Z,78.80
2022-09-12T09:18:28.715Z,80.60
2022-09-12T09:21:36.625Z,80.70
2022-09-12T09:24:45.901Z,77.42
2022-09-12T09:27:54.813Z,76.47
2022-09-12T09:30:59.302Z,71.37
2022-09-12T09:34:01.936Z,71.49
2022-09-12T09:37:16.203Z,71.11
2022-09-12T09:40:24.747Z,72.03
2022-09-12T09:43:28.983Z,69.16
2022-09-12T09:46:33.746Z,69.42
2022-09-12T09:49:37.428Z,65.30
2022-09-12T09:52:40.743Z,65.99
2022-09-12T09:55:44.238Z,65.12
2022-09-12T09:58:46.860Z,64.03
2022-09-12T10:01:54.760Z,69.79
2022-09-12T10:04:59.810Z,67.81
2022-09-12T10:08:03.492Z,68.32
2022-09-12T10:11:08.244Z,69.64
2022-09-12T10:14:29.458Z,69.02
2022-09-12T10:17:42.990Z,68.35
2022-09-12T10:20:46.587Z,71.19
2022-09-12T10:23:54.115Z,72.10
2022-09-12T10:26:59.210Z,70.21
2022-09-12T10:30:03.976Z,66.31
2022-09-12T10:33:13.136Z,67.49
2022-09-12T10:36:17.014Z,66.00
2022-09-12T10:39:20.501Z,67.25
2022-09-12T10:42:50.044Z,65.93
2022-09-12T10:45:52.800Z,66.71
2022-09-12T10:49:15.755Z,64.05
2022-09-12T10:52:23.077Z,64.77
2022-09-12T10:55:35.161Z,64.06
2022-09-12T10:58:50.797Z,67.95
2022-09-12T11:02:00.861Z,65.49
2022-09-12T11:05:13.883Z,62.85
2022-09-12T11:08:45.677Z,62.25
2022-09-12T11:12:02.354Z,61.96
2022-09-12T11:15:24.972Z,59.03
2022-09-12T11:18:45.046Z,59.74
2022-09-12T11:22:05.279Z,56.36
2022-09-12T11:25:18.862Z,53.37
2022-09-12T11:28:32.290Z,55.95
2022-09-12T11:31:53.511Z,59.26
2022-09-12T11:35:03.292Z,58.92
2022-09-12T11:38:33.367Z,54.74
2022-09-12T11:41:38.774Z,56.59
2022-09-12T11:44:44.651Z,55.36
2022-09-12T11:47:53.967Z,58.66
2022-09-12T11:50:57.792Z,58.07
2022-09-12T11:54:13.078Z,57.70
2022-09-12T11:57:19.011Z,53.11
2022-09-12T12:00:23.993Z,57.54
2022-09-12T12:03:33.114Z,54.53
2022-09-12T12:06:46.429Z,52.79
2022-09-12T12:09:53.258Z,55.62
2022-09-12T12:12:57.558Z,53.56
2022-09-12T12:16:04.220Z,53.09
2022-09-12T12:19:21.291Z,53.51
2022-09-12T12:22:25.609Z,54.12
2022-09-12T12:25:41.757Z,54.05
2022-09-12T12:28:59.059Z,55.93
2022-09-12T12:32:22.592Z,54.51
2022-09-12T12:35:42.893Z,54.31
2022-09-12T12:38:45.734Z,54.06
2022-09-12T12:41:49.687Z,51.91
2022-09-12T12:44:52.459Z,51.06
2022-09-12T12:47:57.830Z,51.65
2022-09-12T12:51:37.908Z,53.18
2022-09-12T12:54:53.632Z,50.25
2022-09-12T12:57:58.671Z,52.91
2022-09-12T13:01:12.581Z,50.69
2022-09-12T13:04:18.738Z,52.75
2022-09-12T13:07:34.257Z,50.45
2022-09-12T13:10:37.825Z,52.69
2022-09-12T13:13:46.371Z,53.94
2022-09-12T13:16:55.518Z,54.88
2022-09-12T13:20:29.184Z,54.62
2022-09-12T13:23:33.411Z,53.21
2022-09-12T13:26:41.794Z,55.61
2022-09-12T13:29:45.674Z,56.33
2022-09-12T13:32:48.239Z,55.75
2022-09-12T13:36:05.908Z,56.42
2022-09-12T13:39:17.627Z,56.11
2022-09-12T13:42:39.241Z,57.31
2022-09-12T13:45:46.676Z,57.52
2022-09-12T13:48:49.427Z,58.24
2022-09-12T13:52:02.006Z,56.97
2022-09-12T13:55:09.084Z,57.06
2022-09-12T13:58:19.303Z,56.11
2022-09-12T14:01:24.018Z,55.78
2022-09-12T14:04:45.157Z,57.60
2022-09-12T14:07:56.061Z,55.91
2022-09-12T14:10:59.118Z,55.53
2022-09-12T14:14:07.444Z,56.66
2022-09-12T14:17:23.018Z,55.49
2022-09-12T14:20:27.782Z,57.95
2022-09-12T14:23:32.190Z,58.11
2022-09-12T14:26:36.795Z,60.74
2022-09-12T14:29:43.247Z,60.45
2022-09-12T14:33:03.781Z,59.43
2022-09-12T14:36:13.016Z,56.50
2022-09-12T14:39:21.777Z,57.59
2022-09-12T14:42:30.994Z,56.96
2022-09-12T14:45:33.823Z,59.69
2022-09-12T14:48:44.059Z,57.86
2022-09-12T14:51:55.887Z,59.74
2022-09-12T14:55:00.297Z,57.75
2022-09-12T14:58:16.513Z,57.63
2022-09-12T15:01:27.390Z,58.36
2022-09-12T15:04:41.537Z,61.26
2022-09-12T15:07:47.152Z,61.03
2022-09-12T15:10:49.846Z,58.88
2022-09-12T15:13:52.420Z,61.72
2022-09-12T15:16:54.929Z,60.76
2022-09-12T15:19:58.765Z,59.77
2022-09-12T15:23:01.242Z,60.53
2022-09-12T15:26:04.246Z,64.91
2022-09-12T15:29:06.858Z,63.34
2022-09-12T15:32:23.513Z,63.04
2022-09-12T15:35:33.965Z,65.59
2022-09-12T15:38:36.457Z,66.13
2022-09-12T15:41:40.643Z,64.22
2022-09-12T15:44:43.450Z,64.20
2022-09-12T15:47:45.968Z,61.69
2022-09-12T15:50:49.875Z,62.26
2022-09-12T15:53:53.021Z,59.85
2022-09-12T15:56:55.607Z,61.50
2022-09-12T15:59:58.094Z,60.69
2022-09-12T16:03:00.860Z,58.73
2022-09-12T16:06:05.723Z,60.33
2022-09-12T16:09:08.428Z,64.15
2022-09-12T16:12:10.919Z,62.70
2022-09-12T16:15:15.516Z,62.99
2022-09-12T16:18:18.280Z,66.27
2022-09-12T16:21:22.201Z,68.34
2022-09-12T16:24:24.700Z,68.23
2022-09-12T16:27:27.185Z,67.61
2022-09-12T16:30:29.714Z,67.42
2022-09-12T16:33:33.051Z,64.12
2022-09-12T16:36:36.858Z,63.98
2022-09-12T16:39:39.361Z,66.80
2022-09-12T16:42:43.896Z,63.69
2022-09-12T16:45:46.689Z,64.21
2022-09-12T16:48:52.663Z,69.78
2022-09-12T16:51:56.781Z,70.83
2022-09-12T16:54:59.270Z,70.55
2022-09-12T16:58:01.773Z,69.19
2022-09-12T17:01:06.498Z,72.16
2022-09-12T17:04:11.715Z,72.91
2022-09-12T17:07:15.529Z,73.12
2022-09-12T17:10:18.230Z,74.43
2022-09-12T17:13:20.705Z,75.36
2022-09-12T17:16:23.860Z,75.29
2022-09-12T17:19:29.628Z,76.19
2022-09-12T17:22:34.020Z,77.30
2022-09-12T17:25:36.678Z,76.89
2022-09-12T17:28:40.254Z,77.90
2022-09-12T17:31:43.192Z,79.03
2022-09-12T17:34:45.706Z,80.88
2022-09-12T17:37:49.562Z,79.65
2022-09-12T17:40:59.456Z,81.05
2022-09-12T17:44:03.429Z,82.17
2022-09-12T17:47:06.126Z,82.73
2022-09-12T17:50:30.774Z,82.73
2022-09-12T17:53:34.129Z,83.32
2022-09-12T17:56:38.386Z,84.11
2022-09-12T17:59:40.862Z,85.04
2022-09-12T18:02:43.035Z,85.57
2022-09-12T18:05:47.537Z,85.70
2022-09-12T18:08:51.608Z,85.72
2022-09-12T18:11:54.542Z,85.98
2022-09-12T18:14:57.113Z,84.92
2022-09-12T18:17:59.597Z,84.93
2022-09-12T18:21:02.662Z,84.75
2022-09-12T18:24:07.121Z,83.95
2022-09-12T18:27:09.624Z,84.44
2022-09-12T18:30:22.088Z,84.17
2022-09-12T18:33:24.833Z,84.66
2022-09-12T18:36:28.251Z,85.03
2022-09-12T18:39:32.126Z,84.37
2022-09-12T18:42:34.628Z,83.78
2022-09-12T18:45:37.143Z,84.27
2022-09-12T18:48:39.787Z,84.11
2022-09-12T18:51:42.244Z,84.37
2022-09-12T18:54:46.077Z,83.52
2022-09-12T18:57:48.562Z,83.50
2022-09-12T19:00:51.319Z,83.53
2022-09-12T19:03:54.850Z,82.96
2022-09-12T19:06:57.398Z,82.72
2022-09-12T19:10:01.300Z,83.23
2022-09-12T19:13:03.811Z,83.31
2022-09-12T19:16:09.214Z,83.12
2022-09-12T19:19:11.792Z,83.21
2022-09-12T19:22:14.269Z,82.99
2022-09-12T19:25:18.105Z,83.89
2022-09-12T19:28:20.573Z,81.91
2022-09-12T19:31:24.327Z,82.04
2022-09-12T19:34:26.922Z,82.58
2022-09-12T19:37:30.500Z,82.46
2022-09-12T19:40:34.537Z,83.40
2022-09-12T19:43:37.301Z,82.99
2022-09-12T19:46:40.436Z,83.11
2022-09-12T19:49:43.023Z,83.44
2022-09-12T19:52:45.514Z,83.54
2022-09-12T19:55:49.340Z,83.64
2022-09-12T19:58:56.079Z,83.99
2022-09-12T20:01:59.200Z,82.91
2022-09-12T20:05:01.860Z,81.34
2022-09-12T20:08:04.340Z,83.31
2022-09-12T20:11:08.717Z,82.11
2022-09-12T20:14:11.363Z,82.53
2022-09-12T20:17:14.481Z,81.32
2022-09-12T20:20:17.203Z,82.52
2022-09-12T20:23:19.701Z,82.25
2022-09-12T20:26:24.907Z,82.45
2022-09-12T20:29:27.675Z,82.38
2022-09-12T20:32:30.788Z,82.34
2022-09-12T20:35:33.426Z,82.82
2022-09-12T20:38:36.999Z,83.23
2022-09-12T20:41:40.880Z,83.80
2022-09-12T20:44:43.396Z,83.67
2022-09-12T20:47:45.895Z,83.12
2022-09-12T20:50:48.588Z,83.85
2022-09-12T20:53:54.177Z,84.68
2022-09-12T20:56:58.077Z,84.32
2022-09-12T21:00:00.559Z,84.16
2022-09-12T21:03:03.081Z,84.98
2022-09-12T21:06:06.362Z,84.86
2022-09-12T21:09:08.936Z,85.68
2022-09-12T21:12:12.761Z,85.97
2022-09-12T21:15:15.380Z,85.93
2022-09-12T21:18:17.865Z,86.41
2022-09-12T21:21:20.880Z,85.91
2022-09-12T21:24:23.513Z,86.34
2022-09-12T21:27:27.686Z,86.09
2022-09-12T21:30:30.167Z,86.11
2022-09-12T21:33:32.767Z,87.19
2022-09-12T21:36:35.250Z,86.72
2022-09-12T21:39:37.768Z,86.72
2022-09-12T21:42:41.569Z,86.85
2022-09-12T21:45:44.064Z,86.68
2022-09-12T21:48:46.560Z,87.08
2022-09-12T21:51:49.076Z,87.08
2022-09-12T21:54:51.549Z,87.01
2022-09-12T21:57:55.743Z,87.35
2022-09-12T22:00:58.319Z,87.25
2022-09-12T22:04:00.868Z,86.44
2022-09-12T22:07:03.365Z,86.70
2022-09-12T22:10:07.443Z,86.27
2022-09-12T22:13:11.283Z,87.21
2022-09-12T22:16:13.812Z,86.54
2022-09-12T22:19:16.320Z,86.55
2022-09-12T22:22:36.444Z,86.49
2022-09-12T22:25:39.083Z,86.62
2022-09-12T22:28:43.116Z,86.93
2022-09-12T22:31:45.956Z,86.64
2022-09-12T22:34:48.559Z,86.79
2022-09-12T22:37:51.051Z,86.78
2022-09-12T22:40:53.557Z,86.55
2022-09-12T22:43:57.506Z,86.25
2022-09-12T22:46:59.990Z,86.30
2022-09-12T22:50:02.505Z,87.15
2022-09-12T22:53:05.130Z,86.83
2022-09-12T22:56:09.042Z,86.49
2022-09-12T22:59:13.113Z,86.19
2022-09-12T23:02:15.635Z,85.72
2022-09-12T23:05:18.122Z,86.05
2022-09-12T23:08:20.609Z,86.41
2022-09-12T23:11:23.959Z,85.06
2022-09-12T23:14:27.790Z,86.38
2022-09-12T23:17:30.267Z,85.20
2022-09-12T23:20:32.778Z,85.46
2022-09-12T23:23:36.087Z,86.40
2022-09-12T23:26:38.735Z,85.57
2022-09-12T23:29:42.555Z,85.09
2022-09-12T23:32:45.068Z,85.80
2022-09-12T23:35:47.578Z,84.96
2022-09-12T23:38:50.542Z,85.02
2022-09-12T23:41:53.146Z,85.01
2022-09-12T23:44:56.987Z,84.32
2022-09-12T23:47:59.482Z,86.09
2022-09-12T23:51:02.002Z,85.92
2022-09-12T23:54:04.605Z,86.67
2022-09-12T23:57:07.093Z,86.38
